Terminal Aerodrome Forecast
Issued by NWS Albuquerque, NM

Home | Current Version | Previous Version | Text Only | Print | Product List | Glossary On
Versions: 1 2 3 4 5 6 7 8 9 10 11 12 13 14 15
000
FTUS45 KABQ 220600 AAA
TAFABQ
TAF AMD
KABQ 220613Z 2206/2306 13006KT P6SM BKN110
      TEMPO 2206/2209 10010G20KT
     FM221200 VRB04KT P6SM SCT130
     FM222200 10012G24KT P6SM VCTS SCT080CB
      TEMPO 2300/2303 -TSRA BKN060CB
     FM230400 10017G28KT P6SM VCSH BKN100=

USA.gov is the U.S. government's official web portal to all federal, state and local government web resources and services.